REV945 EGJJ-ENBR
Flight info
| Callsign | REV945 |
|---|---|
| Flight time | 1h 38m |
| Altitude | 19000 |
| Route | BENIX G27 AKIKI/N0497F430 UN867 AVANT/N0496F450 L980 MID UM185 DIGSU P5 BUZDE DCT ALOTI DCT ALUVA |
| Aircraft | C750/M-SDFGHRUWXYZ/HB1 |
Departure
| Time | 2026-05-04 15:46 |
|---|---|
| Airport | Jersey Airport (EGJJ) |
Arrival
| Time | 2026-05-04 17:24 |
|---|---|
| Airport | Bergen Airport, Flesland (ENBR) |
| Time | Latitude | Longitude | Altitude | Speed | Heading |
|---|---|---|---|---|---|
| 2026-05-04 15:24 | 49.20351 | -2.19337 | 280 ft | 0 kts | 86° |
| 2026-05-04 15:40 | 49.20354 | -2.19324 | 280 ft | 2 kts | 64° |
| 2026-05-04 15:40 | 49.20364 | -2.19303 | 280 ft | 1 kts | 24° |
| 2026-05-04 15:40 | 49.20377 | -2.19304 | 280 ft | 3 kts | 355° |
| 2026-05-04 15:40 | 49.20401 | -2.19315 | 280 ft | 2 kts | 311° |
| 2026-05-04 15:41 | 49.20401 | -2.19338 | 280 ft | 4 kts | 274° |
| 2026-05-04 15:41 | 49.20399 | -2.19397 | 280 ft | 7 kts | 270° |
| 2026-05-04 15:41 | 49.20410 | -2.19479 | 280 ft | 10 kts | 285° |
| 2026-05-04 15:41 | 49.20430 | -2.19588 | 280 ft | 11 kts | 285° |
| 2026-05-04 15:42 | 49.20442 | -2.19699 | 280 ft | 9 kts | 259° |
| 2026-05-04 15:42 | 49.20436 | -2.19784 | 280 ft | 8 kts | 265° |
| 2026-05-04 15:42 | 49.20432 | -2.19862 | 280 ft | 7 kts | 265° |
| 2026-05-04 15:42 | 49.20444 | -2.19915 | 280 ft | 4 kts | 343° |
| 2026-05-04 15:43 | 49.20480 | -2.19924 | 280 ft | 6 kts | 355° |
| 2026-05-04 15:43 | 49.20510 | -2.19969 | 280 ft | 8 kts | 289° |
| 2026-05-04 15:43 | 49.20538 | -2.20090 | 280 ft | 14 kts | 287° |
| 2026-05-04 15:43 | 49.20565 | -2.20226 | 280 ft | 13 kts | 286° |
| 2026-05-04 15:44 | 49.20590 | -2.20354 | 280 ft | 12 kts | 286° |
| 2026-05-04 15:44 | 49.20614 | -2.20475 | 280 ft | 11 kts | 287° |
| 2026-05-04 15:44 | 49.20625 | -2.20586 | 281 ft | 10 kts | 276° |
| 2026-05-04 15:44 | 49.20632 | -2.20677 | 281 ft | 8 kts | 304° |
| 2026-05-04 15:45 | 49.20676 | -2.20714 | 280 ft | 8 kts | 6° |
| 2026-05-04 15:45 | 49.20709 | -2.20614 | 280 ft | 16 kts | 82° |
| 2026-05-04 15:45 | 49.20756 | -2.20070 | 279 ft | 120 kts | 83° |
| 2026-05-04 15:45 | 49.20895 | -2.18413 | 798 ft | 181 kts | 80° |
| 2026-05-04 15:46 | 49.21068 | -2.16424 | 2073 ft | 191 kts | 79° |
| 2026-05-04 15:46 | 49.21260 | -2.14378 | 2829 ft | 202 kts | 80° |
| 2026-05-04 15:46 | 49.21461 | -2.12162 | 3439 ft | 214 kts | 82° |
| 2026-05-04 15:46 | 49.21655 | -2.09890 | 4198 ft | 222 kts | 83° |
| 2026-05-04 15:47 | 49.21869 | -2.07391 | 4683 ft | 251 kts | 83° |
| 2026-05-04 15:47 | 49.22266 | -2.04682 | 5309 ft | 269 kts | 66° |
| 2026-05-04 15:47 | 49.23396 | -2.02417 | 6448 ft | 268 kts | 49° |
| 2026-05-04 15:47 | 49.24670 | -2.00289 | 7413 ft | 274 kts | 49° |
| 2026-05-04 15:48 | 49.25968 | -1.98105 | 8466 ft | 280 kts | 50° |
| 2026-05-04 15:48 | 49.27283 | -1.95873 | 9549 ft | 285 kts | 50° |
| 2026-05-04 15:48 | 49.30053 | -1.91171 | 10570 ft | 323 kts | 50° |
| 2026-05-04 15:49 | 49.31621 | -1.88510 | 10702 ft | 350 kts | 50° |
| 2026-05-04 15:49 | 49.33270 | -1.85717 | 11407 ft | 353 kts | 50° |
| 2026-05-04 15:49 | 49.34917 | -1.82912 | 12214 ft | 356 kts | 50° |
| 2026-05-04 15:49 | 49.36586 | -1.80057 | 12954 ft | 360 kts | 50° |
| 2026-05-04 15:50 | 49.38270 | -1.77179 | 13727 ft | 365 kts | 50° |
| 2026-05-04 15:50 | 49.39978 | -1.74261 | 14372 ft | 370 kts | 50° |
| 2026-05-04 15:50 | 49.41705 | -1.71305 | 15053 ft | 373 kts | 50° |
| 2026-05-04 15:50 | 49.43442 | -1.68328 | 15717 ft | 376 kts | 50° |
| 2026-05-04 15:51 | 49.45193 | -1.65320 | 16401 ft | 380 kts | 50° |
| 2026-05-04 15:51 | 49.46964 | -1.62279 | 17109 ft | 383 kts | 50° |
| 2026-05-04 15:51 | 49.48746 | -1.59214 | 17826 ft | 387 kts | 50° |
| 2026-05-04 15:51 | 49.50548 | -1.56109 | 18525 ft | 391 kts | 51° |
| 2026-05-04 15:52 | 49.52367 | -1.52972 | 19125 ft | 396 kts | 50° |
| 2026-05-04 15:52 | 49.54215 | -1.49781 | 19723 ft | 402 kts | 50° |
| 2026-05-04 15:52 | 49.56151 | -1.46630 | 20364 ft | 408 kts | 47° |
| 2026-05-04 15:52 | 49.58395 | -1.43875 | 20959 ft | 418 kts | 33° |
| 2026-05-04 15:53 | 49.61064 | -1.42025 | 21610 ft | 426 kts | 19° |
| 2026-05-04 15:53 | 49.63996 | -1.41231 | 22211 ft | 431 kts | 5° |
| 2026-05-04 15:53 | 49.67012 | -1.40951 | 22807 ft | 436 kts | 3° |
| 2026-05-04 15:53 | 49.70057 | -1.40708 | 23389 ft | 441 kts | 3° |
| 2026-05-04 15:54 | 49.73143 | -1.40444 | 23903 ft | 446 kts | 3° |
| 2026-05-04 15:54 | 49.76248 | -1.40155 | 24480 ft | 447 kts | 3° |
| 2026-05-04 15:54 | 49.79368 | -1.39872 | 25017 ft | 451 kts | 3° |
| 2026-05-04 15:54 | 49.82516 | -1.39601 | 25485 ft | 455 kts | 3° |
| 2026-05-04 15:55 | 49.85695 | -1.39324 | 25980 ft | 460 kts | 3° |
| 2026-05-04 15:55 | 49.88906 | -1.39035 | 26471 ft | 464 kts | 3° |
| 2026-05-04 15:55 | 49.92140 | -1.38744 | 26962 ft | 468 kts | 3° |
| 2026-05-04 15:55 | 49.95410 | -1.38454 | 27455 ft | 472 kts | 3° |
| 2026-05-04 15:56 | 49.98705 | -1.38161 | 27955 ft | 476 kts | 3° |
| 2026-05-04 15:56 | 50.02011 | -1.37571 | 28370 ft | 481 kts | 9° |
| 2026-05-04 15:56 | 50.05325 | -1.36705 | 28856 ft | 485 kts | 9° |
| 2026-05-04 15:56 | 50.08658 | -1.35878 | 29503 ft | 485 kts | 8° |
| 2026-05-04 15:57 | 50.12015 | -1.35073 | 29982 ft | 490 kts | 8° |
| 2026-05-04 15:57 | 50.15392 | -1.34238 | 30404 ft | 493 kts | 8° |
| 2026-05-04 15:57 | 50.18782 | -1.33374 | 30862 ft | 495 kts | 9° |
| 2026-05-04 15:57 | 50.22185 | -1.32520 | 31442 ft | 494 kts | 9° |
| 2026-05-04 15:58 | 50.25576 | -1.31683 | 32144 ft | 491 kts | 9° |
| 2026-05-04 15:58 | 50.28942 | -1.30844 | 32846 ft | 488 kts | 9° |
| 2026-05-04 15:58 | 50.32289 | -1.29998 | 33560 ft | 486 kts | 10° |
| 2026-05-04 15:58 | 50.35616 | -1.29160 | 34233 ft | 483 kts | 10° |
| 2026-05-04 15:59 | 50.38925 | -1.28331 | 34799 ft | 481 kts | 10° |
| 2026-05-04 15:59 | 50.42230 | -1.27499 | 35357 ft | 481 kts | 9° |
| 2026-05-04 15:59 | 50.45529 | -1.26667 | 35919 ft | 480 kts | 9° |
| 2026-05-04 15:59 | 50.48797 | -1.25669 | 36442 ft | 479 kts | 15° |
| 2026-05-04 16:00 | 50.51931 | -1.23924 | 36999 ft | 477 kts | 25° |
| 2026-05-04 16:00 | 50.54844 | -1.21445 | 37570 ft | 476 kts | 32° |
| 2026-05-04 16:00 | 50.57585 | -1.18537 | 38146 ft | 475 kts | 36° |
| 2026-05-04 16:00 | 50.60257 | -1.15502 | 38702 ft | 474 kts | 36° |
| 2026-05-04 16:01 | 50.63011 | -1.12626 | 39121 ft | 474 kts | 32° |
| 2026-05-04 16:01 | 50.65853 | -1.10000 | 39569 ft | 474 kts | 30° |
| 2026-05-04 16:01 | 50.67729 | -1.08241 | 39884 ft | 473 kts | 32° |
| 2026-05-04 16:01 | 50.70495 | -1.05432 | 40340 ft | 473 kts | 33° |
| 2026-05-04 16:02 | 50.73238 | -1.02561 | 40774 ft | 473 kts | 33° |
| 2026-05-04 16:02 | 50.76017 | -0.99787 | 41218 ft | 473 kts | 31° |
| 2026-05-04 16:02 | 50.81595 | -0.94262 | 42093 ft | 473 kts | 34° |
| 2026-05-04 16:03 | 50.85006 | -0.89957 | 42617 ft | 474 kts | 41° |
| 2026-05-04 16:03 | 50.86678 | -0.87630 | 42909 ft | 474 kts | 41° |
| 2026-05-04 16:03 | 50.89162 | -0.84208 | 43351 ft | 473 kts | 40° |
| 2026-05-04 16:03 | 50.91698 | -0.80874 | 43804 ft | 473 kts | 39° |
| 2026-05-04 16:04 | 50.94232 | -0.77556 | 44217 ft | 473 kts | 39° |
| 2026-05-04 16:04 | 50.99238 | -0.70767 | 44975 ft | 473 kts | 40° |
| 2026-05-04 16:04 | 51.01771 | -0.67365 | 44989 ft | 481 kts | 39° |
| 2026-05-04 16:05 | 51.07211 | -0.60942 | 44988 ft | 494 kts | 28° |
| 2026-05-04 16:05 | 51.13524 | -0.56262 | 45007 ft | 507 kts | 22° |
| 2026-05-04 16:06 | 51.16747 | -0.53896 | 45009 ft | 514 kts | 25° |
| 2026-05-04 16:06 | 51.26618 | -0.46636 | 44996 ft | 533 kts | 17° |
| 2026-05-04 16:07 | 51.30222 | -0.44836 | 45001 ft | 537 kts | 18° |
| 2026-05-04 16:08 | 51.43710 | -0.34558 | 45026 ft | 537 kts | 23° |
| 2026-05-04 16:09 | 51.60618 | -0.21749 | 45052 ft | 537 kts | 24° |
| 2026-05-04 16:09 | 51.67081 | -0.16780 | 45038 ft | 500 kts | 25° |
| 2026-05-04 16:10 | 51.72988 | -0.11643 | 45032 ft | 489 kts | 34° |
| 2026-05-04 16:11 | 51.79754 | 0.00525 | 45043 ft | 507 kts | 59° |
| 2026-05-04 16:11 | 51.81419 | 0.05554 | 45058 ft | 508 kts | 63° |
| 2026-05-04 16:12 | 51.91986 | 0.35180 | 45055 ft | 507 kts | 60° |
| 2026-05-04 16:13 | 51.99302 | 0.54730 | 45010 ft | 507 kts | 54° |
| 2026-05-04 16:14 | 52.04133 | 0.62976 | 44999 ft | 505 kts | 37° |
| 2026-05-04 16:14 | 52.10243 | 0.68476 | 45016 ft | 502 kts | 19° |
| 2026-05-04 16:15 | 52.20455 | 0.71905 | 45041 ft | 500 kts | 7° |
| 2026-05-04 16:16 | 52.27236 | 0.74475 | 45030 ft | 501 kts | 16° |
| 2026-05-04 16:17 | 52.43945 | 0.81975 | 45029 ft | 500 kts | 14° |
| 2026-05-04 16:18 | 52.57421 | 0.87600 | 45053 ft | 500 kts | 13° |
| 2026-05-04 16:19 | 52.74270 | 0.94685 | 45043 ft | 499 kts | 13° |
| 2026-05-04 16:20 | 52.91062 | 1.01771 | 45036 ft | 498 kts | 13° |
| 2026-05-04 16:22 | 53.07837 | 1.08897 | 45053 ft | 498 kts | 13° |
| 2026-05-04 16:23 | 53.27988 | 1.17536 | 45047 ft | 499 kts | 13° |
| 2026-05-04 16:25 | 53.48135 | 1.26267 | 45045 ft | 498 kts | 13° |
| 2026-05-04 16:26 | 53.71618 | 1.36557 | 45049 ft | 498 kts | 13° |
| 2026-05-04 16:28 | 53.88333 | 1.44390 | 45048 ft | 499 kts | 14° |
| 2026-05-04 16:29 | 54.10320 | 1.55092 | 45050 ft | 498 kts | 14° |
| 2026-05-04 16:31 | 54.26726 | 1.63132 | 45049 ft | 499 kts | 14° |
| 2026-05-04 16:32 | 54.46696 | 1.73014 | 45048 ft | 498 kts | 14° |
| 2026-05-04 16:33 | 54.60017 | 1.79662 | 45056 ft | 498 kts | 14° |
| 2026-05-04 16:34 | 54.70007 | 1.84677 | 45055 ft | 498 kts | 14° |
| 2026-05-04 16:35 | 54.89907 | 1.94744 | 45045 ft | 497 kts | 14° |
| 2026-05-04 16:36 | 54.99872 | 1.99824 | 45057 ft | 497 kts | 14° |
| 2026-05-04 16:37 | 55.09823 | 2.04923 | 45038 ft | 497 kts | 14° |
| 2026-05-04 16:38 | 55.23087 | 2.11762 | 45044 ft | 497 kts | 14° |
| 2026-05-04 16:39 | 55.39679 | 2.20384 | 45036 ft | 497 kts | 14° |
| 2026-05-04 16:40 | 55.52955 | 2.27337 | 45033 ft | 498 kts | 14° |
| 2026-05-04 16:41 | 55.69562 | 2.36104 | 45036 ft | 498 kts | 14° |
| 2026-05-04 16:43 | 55.86132 | 2.44930 | 45030 ft | 499 kts | 14° |
| 2026-05-04 16:43 | 55.96103 | 2.50278 | 45028 ft | 499 kts | 14° |
| 2026-05-04 16:45 | 56.16049 | 2.61064 | 45020 ft | 499 kts | 14° |
| 2026-05-04 16:46 | 56.32663 | 2.70139 | 45016 ft | 499 kts | 14° |
| 2026-05-04 16:47 | 56.45954 | 2.77458 | 45014 ft | 500 kts | 14° |
| 2026-05-04 16:48 | 56.59247 | 2.84832 | 45014 ft | 499 kts | 14° |
| 2026-05-04 16:49 | 56.72517 | 2.92248 | 45005 ft | 499 kts | 14° |
| 2026-05-04 16:50 | 56.84679 | 2.99092 | 45003 ft | 500 kts | 14° |
| 2026-05-04 16:51 | 56.94630 | 3.04727 | 44996 ft | 499 kts | 14° |
| 2026-05-04 16:52 | 57.07898 | 3.12291 | 45009 ft | 499 kts | 14° |
| 2026-05-04 16:53 | 57.17872 | 3.18014 | 44991 ft | 500 kts | 14° |
| 2026-05-04 16:54 | 57.31162 | 3.25689 | 44987 ft | 500 kts | 14° |
| 2026-05-04 16:55 | 57.51041 | 3.37282 | 44972 ft | 500 kts | 14° |
| 2026-05-04 16:56 | 57.67654 | 3.47069 | 44964 ft | 501 kts | 14° |
| 2026-05-04 16:57 | 57.77623 | 3.52987 | 44962 ft | 501 kts | 14° |
| 2026-05-04 16:58 | 57.90901 | 3.61014 | 44946 ft | 503 kts | 18° |
| 2026-05-04 17:00 | 58.09977 | 3.77746 | 44948 ft | 506 kts | 22° |
| 2026-05-04 17:01 | 58.25879 | 3.91921 | 44943 ft | 504 kts | 22° |
| 2026-05-04 17:01 | 58.32234 | 3.97610 | 44776 ft | 508 kts | 22° |
| 2026-05-04 17:02 | 58.38708 | 4.03440 | 43356 ft | 514 kts | 22° |
| 2026-05-04 17:02 | 58.45135 | 4.09251 | 42012 ft | 508 kts | 21° |
| 2026-05-04 17:03 | 58.48319 | 4.12131 | 41343 ft | 506 kts | 21° |
| 2026-05-04 17:03 | 58.51496 | 4.15018 | 40678 ft | 505 kts | 21° |
| 2026-05-04 17:03 | 58.57844 | 4.20802 | 39356 ft | 507 kts | 20° |
| 2026-05-04 17:04 | 58.64221 | 4.26635 | 37949 ft | 507 kts | 20° |
| 2026-05-04 17:04 | 58.70590 | 4.32482 | 36610 ft | 509 kts | 20° |
| 2026-05-04 17:05 | 58.76955 | 4.38354 | 35275 ft | 512 kts | 19° |
| 2026-05-04 17:05 | 58.83369 | 4.44295 | 33926 ft | 505 kts | 19° |
| 2026-05-04 17:06 | 58.89464 | 4.49983 | 32682 ft | 473 kts | 18° |
| 2026-05-04 17:06 | 58.92437 | 4.52726 | 32067 ft | 477 kts | 18° |
| 2026-05-04 17:07 | 58.98496 | 4.58389 | 30781 ft | 487 kts | 18° |
| 2026-05-04 17:07 | 59.00557 | 4.60338 | 30348 ft | 489 kts | 18° |
| 2026-05-04 17:07 | 59.04587 | 4.64127 | 29450 ft | 482 kts | 18° |
| 2026-05-04 17:07 | 59.07585 | 4.66942 | 28818 ft | 476 kts | 18° |
| 2026-05-04 17:08 | 59.10557 | 4.69743 | 28194 ft | 472 kts | 18° |
| 2026-05-04 17:08 | 59.16411 | 4.75287 | 26966 ft | 463 kts | 18° |
| 2026-05-04 17:08 | 59.19295 | 4.78021 | 26354 ft | 459 kts | 18° |
| 2026-05-04 17:09 | 59.22151 | 4.80736 | 25754 ft | 455 kts | 18° |
| 2026-05-04 17:09 | 59.24984 | 4.83434 | 25158 ft | 453 kts | 17° |
| 2026-05-04 17:09 | 59.27802 | 4.86123 | 24575 ft | 448 kts | 17° |
| 2026-05-04 17:10 | 59.33356 | 4.91437 | 23372 ft | 440 kts | 17° |
| 2026-05-04 17:10 | 59.41640 | 4.97664 | 21642 ft | 406 kts | 358° |
| 2026-05-04 17:11 | 59.44436 | 4.98398 | 21111 ft | 404 kts | 358° |
| 2026-05-04 17:11 | 59.47213 | 4.99136 | 20578 ft | 402 kts | 358° |
| 2026-05-04 17:11 | 59.52710 | 5.00656 | 19526 ft | 395 kts | 357° |
| 2026-05-04 17:12 | 59.55414 | 5.01393 | 18999 ft | 390 kts | 357° |
| 2026-05-04 17:12 | 59.60723 | 5.02835 | 17940 ft | 385 kts | 357° |
| 2026-05-04 17:13 | 59.68592 | 5.05000 | 16421 ft | 376 kts | 358° |
| 2026-05-04 17:14 | 59.76281 | 5.07123 | 14946 ft | 368 kts | 358° |
| 2026-05-04 17:14 | 59.78807 | 5.07821 | 14460 ft | 365 kts | 358° |
| 2026-05-04 17:14 | 59.83805 | 5.09207 | 13467 ft | 360 kts | 358° |
| 2026-05-04 17:15 | 59.86272 | 5.09892 | 12991 ft | 357 kts | 358° |
| 2026-05-04 17:15 | 59.90973 | 5.11235 | 12085 ft | 318 kts | 358° |
| 2026-05-04 17:16 | 59.95085 | 5.12370 | 11292 ft | 281 kts | 357° |
| 2026-05-04 17:16 | 60.00427 | 5.13888 | 10161 ft | 220 kts | 357° |
| 2026-05-04 17:17 | 60.01934 | 5.14299 | 9092 ft | 217 kts | 356° |
| 2026-05-04 17:17 | 60.06416 | 5.15635 | 7506 ft | 214 kts | 7° |
| 2026-05-04 17:18 | 60.07725 | 5.17289 | 7044 ft | 230 kts | 40° |
| 2026-05-04 17:18 | 60.09294 | 5.22390 | 4557 ft | 216 kts | 57° |
| 2026-05-04 17:19 | 60.10883 | 5.27078 | 2928 ft | 196 kts | 30° |
| 2026-05-04 17:19 | 60.13283 | 5.27131 | 3006 ft | 165 kts | 348° |
| 2026-05-04 17:20 | 60.15586 | 5.26399 | 2833 ft | 173 kts | 348° |
| 2026-05-04 17:20 | 60.17668 | 5.25712 | 2379 ft | 140 kts | 348° |
| 2026-05-04 17:20 | 60.18644 | 5.25385 | 2185 ft | 142 kts | 348° |
| 2026-05-04 17:21 | 60.20615 | 5.24726 | 1793 ft | 143 kts | 348° |
| 2026-05-04 17:21 | 60.22582 | 5.24069 | 1383 ft | 132 kts | 348° |
| 2026-05-04 17:22 | 60.23401 | 5.23801 | 1195 ft | 110 kts | 347° |
| 2026-05-04 17:22 | 60.24138 | 5.23554 | 1033 ft | 107 kts | 347° |
| 2026-05-04 17:23 | 60.26356 | 5.22799 | 594 ft | 109 kts | 346° |
| 2026-05-04 17:23 | 60.27100 | 5.22562 | 455 ft | 110 kts | 346° |
| 2026-05-04 17:23 | 60.28603 | 5.22071 | 171 ft | 101 kts | 345° |
| 2026-05-04 17:24 | 60.29184 | 5.21872 | 157 ft | 54 kts | 349° |
| 2026-05-04 17:24 | 60.29386 | 5.21950 | 153 ft | 4 kts | 83° |
| 2026-05-04 17:25 | 60.29388 | 5.21986 | 153 ft | 0 kts | 83° |
| 2026-05-04 17:25 | 60.29389 | 5.22005 | 153 ft | 1 kts | 83° |
| 2026-05-04 17:26 | 60.29392 | 5.22048 | 153 ft | 3 kts | 82° |
| 2026-05-04 17:26 | 60.29411 | 5.22212 | 156 ft | 3 kts | 51° |
| 2026-05-04 17:27 | 60.29496 | 5.22206 | 153 ft | 12 kts | 350° |
| 2026-05-04 17:27 | 60.29564 | 5.22345 | 147 ft | 10 kts | 80° |
| 2026-05-04 17:28 | 60.29610 | 5.22387 | 147 ft | 2 kts | 280° |
| 2026-05-04 17:29 | 60.29604 | 5.22294 | 147 ft | 0 kts | 261° |